Time;durP1;ratioP1;P1;durP2;ratioP2;P2;SDS_P1;SDS_P2;PMS_P1;PMS_P2;Temp;Humidity;BMP_temperature;BMP_pressure;BME280_temperature;BME280_humidity;BME280_pressure;Samples;Min_cycle;Max_cycle;Signal;HPM_P1;HPM_P2
2024/01/11 00:00:31;;;;;;;32.87;17.90;;;2.00;95.20;;;;;;6245543;23;20087;-66
2024/01/11 00:02:57;;;;;;;36.27;20.17;;;1.70;93.70;;;;;;6244937;23;20039;-66
2024/01/11 00:05:23;;;;;;;38.50;19.27;;;1.80;93.70;;;;;;6245016;23;20071;-66
2024/01/11 00:07:49;;;;;;;35.70;18.83;;;;;;;;;;6245587;23;20091;-67
2024/01/11 00:10:16;;;;;;;34.13;18.93;;;1.40;96.60;;;;;;6245623;23;20071;-66
2024/01/11 00:12:41;;;;;;;32.53;17.10;;;1.80;95.20;;;;;;6245342;23;20000;-65
2024/01/11 00:15:08;;;;;;;30.03;16.20;;;;;;;;;;6245466;23;20071;-66
2024/01/11 00:17:34;;;;;;;30.37;15.50;;;;;;;;;;6245410;23;20011;-67
2024/01/11 00:20:01;;;;;;;28.87;14.77;;;;;;;;;;6245261;23;20070;-66
2024/01/11 00:22:27;;;;;;;26.13;14.33;;;;;;;;;;6245743;23;20047;-66
2024/01/11 00:24:53;;;;;;;23.53;14.10;;;;;;;;;;6245649;23;20003;-66
2024/01/11 00:27:19;;;;;;;25.67;13.43;;;;;;;;;;6245344;23;20011;-66
2024/01/11 00:29:45;;;;;;;27.00;14.50;;;1.60;74.20;;;;;;6245363;23;19996;-66
2024/01/11 00:32:10;;;;;;;25.73;14.03;;;1.70;74.50;;;;;;6245204;23;20011;-66
2024/01/11 00:34:36;;;;;;;24.87;13.30;;;1.60;74.50;;;;;;6245345;23;20079;-66
2024/01/11 00:37:02;;;;;;;23.93;13.37;;;1.60;74.80;;;;;;6218113;23;20035;-67
2024/01/11 00:39:29;;;;;;;26.23;12.97;;;1.60;76.60;;;;;;6244708;23;20073;-66
2024/01/11 00:41:55;;;;;;;24.20;13.30;;;1.60;75.90;;;;;;6245511;23;20012;-66
2024/01/11 00:44:21;;;;;;;23.03;13.20;;;1.50;76.60;;;;;;6245334;23;20341;-65
2024/01/11 00:46:47;;;;;;;25.70;13.17;;;1.50;75.60;;;;;;6245119;23;20000;-66
2024/01/11 00:49:12;;;;;;;22.77;13.10;;;1.50;76.60;;;;;;6244876;23;20008;-65
2024/01/11 00:51:38;;;;;;;23.17;12.70;;;1.50;76.30;;;;;;6244950;23;20000;-66
2024/01/11 00:54:04;;;;;;;22.10;11.97;;;1.50;76.10;;;;;;6244948;23;20004;-66
2024/01/11 00:56:30;;;;;;;22.63;11.80;;;1.50;75.70;;;;;;6245082;23;20007;-65
2024/01/11 00:58:55;;;;;;;22.33;11.93;;;1.50;75.40;;;;;;6245299;23;20062;-66
2024/01/11 01:01:21;;;;;;;22.10;12.97;;;1.40;75.30;;;;;;6244770;23;20023;-66
2024/01/11 01:03:47;;;;;;;27.73;12.70;;;1.50;76.20;;;;;;6244895;23;20019;-66
2024/01/11 01:06:13;;;;;;;24.97;12.73;;;1.50;76.70;;;;;;6245297;23;20008;-65
2024/01/11 01:08:38;;;;;;;24.40;12.97;;;1.40;74.70;;;;;;6245066;23;20071;-66
2024/01/11 01:11:04;;;;;;;20.93;12.83;;;1.40;75.60;;;;;;6245231;23;20031;-66
2024/01/11 01:13:30;;;;;;;22.63;12.53;;;1.40;76.20;;;;;;6244988;23;20008;-66
2024/01/11 01:15:56;;;;;;;23.70;13.33;;;1.40;75.40;;;;;;6244997;23;20426;-66
2024/01/11 01:18:22;;;;;;;26.60;13.90;;;1.40;75.10;;;;;;6245290;23;20030;-65
2024/01/11 01:20:48;;;;;;;33.13;16.23;;;1.40;75.00;;;;;;6245167;23;20012;-65
2024/01/11 01:23:13;;;;;;;31.80;16.67;;;1.30;77.10;;;;;;6244944;23;20000;-66
2024/01/11 01:25:39;;;;;;;29.87;15.80;;;1.30;77.50;;;;;;6245211;23;20000;-67
2024/01/11 01:28:05;;;;;;;29.40;16.10;;;1.30;76.80;;;;;;6245138;23;20035;-66
2024/01/11 01:30:31;;;;;;;31.00;16.87;;;1.20;77.80;;;;;;6244936;23;20066;-66
2024/01/11 01:32:56;;;;;;;29.87;16.13;;;1.20;76.90;;;;;;6245005;23;20004;-66
2024/01/11 01:35:22;;;;;;;28.57;15.77;;;1.20;76.40;;;;;;6245293;23;20024;-66
2024/01/11 01:37:48;;;;;;;33.17;17.57;;;1.10;78.00;;;;;;6243815;23;20083;-66
2024/01/11 01:40:14;;;;;;;33.83;17.17;;;1.10;78.90;;;;;;6244494;23;20000;-64
2024/01/11 01:42:44;;;;;;;33.70;16.87;;;1.10;79.10;;;;;;6245256;23;20014;-65
2024/01/11 01:45:09;;;;;;;31.20;17.03;;;1.00;78.00;;;;;;6247035;23;20000;-66
2024/01/11 01:47:37;;;;;;;33.23;16.93;;;1.00;78.50;;;;;;6246873;23;20004;-65
2024/01/11 01:50:03;;;;;;;27.90;16.87;;;1.00;78.40;;;;;;6246723;23;20075;-66
2024/01/11 01:52:30;;;;;;;35.00;18.00;;;1.00;77.90;;;;;;6246694;23;20004;-66
2024/01/11 01:54:57;;;;;;;33.67;16.80;;;0.90;79.20;;;;;;6246625;23;20441;-65
2024/01/11 01:57:23;;;;;;;30.87;17.37;;;0.90;79.50;;;;;;6246683;23;20000;-66
2024/01/11 01:59:52;;;;;;;31.33;16.93;;;0.90;79.80;;;;;;6242422;23;20372;-66
2024/01/11 02:02:20;;;;;;;29.07;15.83;;;0.90;81.20;;;;;;6243949;23;20054;-66
2024/01/11 02:04:47;;;;;;;33.90;16.97;;;0.80;81.90;;;;;;6245061;23;20331;-65
2024/01/11 02:07:14;;;;;;;32.93;17.03;;;0.80;82.10;;;;;;6246204;23;20027;-65
2024/01/11 02:09:40;;;;;;;28.53;16.73;;;0.80;82.10;;;;;;6246189;23;20515;-66
2024/01/11 02:12:09;;;;;;;31.80;15.77;;;0.70;81.90;;;;;;6246380;23;20419;-66
2024/01/11 02:14:37;;;;;;;32.27;16.90;;;0.70;81.80;;;;;;6246339;23;20011;-66
2024/01/11 02:17:03;;;;;;;30.80;17.13;;;0.70;83.00;;;;;;6246677;23;20050;-66
2024/01/11 02:19:29;;;;;;;33.13;17.03;;;0.70;83.10;;;;;;6246889;23;20083;-66
2024/01/11 02:21:57;;;;;;;31.40;16.67;;;0.70;83.50;;;;;;6246107;23;20454;-66
2024/01/11 02:24:23;;;;;;;32.17;17.27;;;0.60;84.70;;;;;;6246525;23;20001;-66
2024/01/11 02:26:59;;;;;;;31.50;17.40;;;0.70;84.10;;;;;;6246144;23;20035;-66
2024/01/11 02:29:25;;;;;;;31.20;16.83;;;0.70;85.00;;;;;;6246036;23;20003;-66
2024/01/11 02:31:51;;;;;;;31.53;16.63;;;0.60;85.00;;;;;;6246284;23;20377;-66
2024/01/11 02:34:17;;;;;;;27.67;15.70;;;0.60;83.60;;;;;;6246412;23;20008;-66
2024/01/11 02:36:44;;;;;;;28.40;15.83;;;0.60;83.70;;;;;;6246006;23;20388;-65
2024/01/11 02:39:10;;;;;;;27.60;15.37;;;0.60;83.20;;;;;;6245818;23;20449;-65
2024/01/11 02:41:37;;;;;;;27.13;14.63;;;0.60;82.40;;;;;;6246808;23;20024;-66
2024/01/11 02:44:03;;;;;;;28.50;14.57;;;0.60;82.40;;;;;;6246143;23;20001;-65
2024/01/11 02:46:30;;;;;;;31.13;15.13;;;0.60;82.40;;;;;;6245954;23;20010;-66
2024/01/11 02:48:55;;;;;;;30.70;15.27;;;0.60;81.40;;;;;;6245597;23;20023;-65
2024/01/11 02:51:21;;;;;;;30.23;15.80;;;0.60;81.10;;;;;;6245938;23;20004;-66
2024/01/11 02:53:47;;;;;;;30.37;15.70;;;0.60;81.20;;;;;;6246036;23;20000;-66
2024/01/11 02:56:12;;;;;;;37.37;16.20;;;0.60;81.10;;;;;;6246051;23;19996;-66
2024/01/11 02:58:38;;;;;;;30.37;14.93;;;0.60;81.30;;;;;;6246124;23;20008;-65
2024/01/11 03:01:04;;;;;;;30.20;14.97;;;0.60;81.30;;;;;;6246387;23;20016;-65
2024/01/11 03:03:30;;;;;;;23.00;13.50;;;0.60;81.50;;;;;;6245900;23;19996;-66
2024/01/11 03:05:55;;;;;;;23.20;12.80;;;0.60;80.90;;;;;;6246196;23;20031;-66
2024/01/11 03:08:21;;;;;;;25.17;13.27;;;0.60;81.00;;;;;;6246329;23;20000;-66
2024/01/11 03:10:47;;;;;;;21.90;11.97;;;0.60;81.10;;;;;;6246362;23;20042;-67
2024/01/11 03:13:12;;;;;;;21.20;12.47;;;0.50;81.20;;;;;;6245649;23;20004;-65
2024/01/11 03:15:38;;;;;;;23.43;13.33;;;0.50;81.20;;;;;;6245753;23;20004;-66
2024/01/11 03:18:04;;;;;;;26.97;13.53;;;0.40;81.40;;;;;;6245609;23;20083;-66
2024/01/11 03:20:30;;;;;;;28.17;14.87;;;0.50;81.30;;;;;;6245817;23;20338;-66
2024/01/11 03:22:56;;;;;;;26.47;14.57;;;0.40;81.40;;;;;;6245921;23;20000;-65
2024/01/11 03:25:22;;;;;;;28.80;15.03;;;0.40;81.30;;;;;;6245859;23;20004;-66
2024/01/11 03:27:47;;;;;;;34.37;16.60;;;0.30;81.40;;;;;;6245651;23;20008;-66
2024/01/11 03:30:13;;;;;;;31.03;17.00;;;0.30;81.80;;;;;;6246156;23;20004;-66
2024/01/11 03:32:39;;;;;;;29.73;15.83;;;0.30;81.60;;;;;;6245666;23;20083;-65
2024/01/11 03:35:08;;;;;;;30.67;16.63;;;0.30;81.80;;;;;;6245508;23;20054;-66
2024/01/11 03:37:34;;;;;;;30.70;17.23;;;0.30;81.90;;;;;;6245422;23;20464;-66
2024/01/11 03:40:02;;;;;;;28.63;15.57;;;0.30;81.70;;;;;;6245418;23;20067;-66
2024/01/11 03:42:28;;;;;;;32.13;17.10;;;0.20;81.70;;;;;;6243686;23;20012;-66
2024/01/11 03:44:54;;;;;;;29.40;16.33;;;0.20;81.90;;;;;;6245500;23;20024;-66
2024/01/11 03:47:20;;;;;;;28.10;15.60;;;0.20;82.10;;;;;;6245372;23;20027;-66
2024/01/11 03:49:45;;;;;;;29.50;14.37;;;0.20;82.20;;;;;;6245006;23;20008;-66
2024/01/11 03:52:11;;;;;;;31.43;15.93;;;0.20;82.40;;;;;;6245580;23;20509;-65
2024/01/11 03:54:37;;;;;;;28.77;15.53;;;0.30;83.50;;;;;;6245337;23;20010;-65
2024/01/11 03:57:03;;;;;;;28.90;16.30;;;0.20;83.00;;;;;;6245604;23;20000;-66
2024/01/11 03:59:29;;;;;;;29.07;16.20;;;0.20;84.10;;;;;;6245524;23;20099;-65
2024/01/11 04:01:55;;;;;;;28.20;14.33;;;0.20;83.50;;;;;;6245696;23;20016;-65
2024/01/11 04:04:22;;;;;;;25.70;14.20;;;0.30;84.20;;;;;;6245661;23;20004;-66
2024/01/11 04:06:48;;;;;;;24.90;13.73;;;0.20;84.30;;;;;;6245294;23;20007;-66
2024/01/11 04:09:14;;;;;;;22.67;12.80;;;0.20;84.20;;;;;;6245117;23;20000;-66
2024/01/11 04:11:40;;;;;;;25.03;12.53;;;0.20;84.10;;;;;;6245423;23;20030;-66
2024/01/11 04:14:06;;;;;;;24.13;12.67;;;0.20;84.20;;;;;;6245362;23;20007;-66
2024/01/11 04:16:31;;;;;;;24.00;12.50;;;0.20;84.20;;;;;;6245539;23;20095;-65
2024/01/11 04:18:57;;;;;;;26.77;14.70;;;0.20;84.80;;;;;;6245744;23;20446;-67
2024/01/11 04:21:24;;;;;;;28.90;16.20;;;0.20;86.00;;;;;;6245476;23;20012;-66
2024/01/11 04:23:50;;;;;;;21.47;12.50;;;0.10;85.90;;;;;;6244927;23;19996;-66
2024/01/11 04:26:17;;;;;;;19.37;11.77;;;0.10;85.90;;;;;;6245424;23;20004;-66
2024/01/11 04:28:45;;;;;;;24.17;12.20;;;0.10;86.10;;;;;;6245697;23;20051;-65
2024/01/11 04:31:10;;;;;;;22.87;12.43;;;0.10;86.10;;;;;;6245349;23;20000;-66
2024/01/11 04:33:40;;;;;;;24.07;12.73;;;0.10;87.10;;;;;;6245282;23;20000;-66
2024/01/11 04:36:06;;;;;;;22.70;12.43;;;0.10;86.10;;;;;;6244937;23;20314;-66
2024/01/11 04:38:31;;;;;;;22.50;12.77;;;0.10;87.00;;;;;;6245131;23;20004;-66
2024/01/11 04:40:57;;;;;;;23.87;11.83;;;0.10;87.70;;;;;;6245120;23;20069;-65
2024/01/11 04:43:23;;;;;;;23.40;12.43;;;0.10;86.70;;;;;;6244794;23;20020;-66
2024/01/11 04:45:49;;;;;;;20.10;11.53;;;0.10;86.60;;;;;;6245159;23;20000;-66
2024/01/11 04:48:14;;;;;;;20.27;12.00;;;0.10;86.90;;;;;;6245225;23;20012;-65
2024/01/11 04:50:40;;;;;;;21.47;11.77;;;0.10;87.80;;;;;;6245154;23;20453;-65
2024/01/11 04:53:07;;;;;;;21.50;11.60;;;0.10;86.80;;;;;;6245413;23;19996;-66
2024/01/11 04:55:32;;;;;;;21.23;11.60;;;0.10;87.90;;;;;;6218129;23;20099;-66
2024/01/11 04:57:58;;;;;;;20.90;11.60;;;0.10;87.90;;;;;;6244931;23;20028;-66
2024/01/11 05:00:24;;;;;;;20.97;11.30;;;0.10;87.60;;;;;;6244962;23;20000;-67
2024/01/11 05:02:49;;;;;;;19.13;11.33;;;0.00;87.30;;;;;;6243621;23;20016;-66
2024/01/11 05:05:15;;;;;;;23.30;11.73;;;0.10;86.80;;;;;;6245045;23;20004;-66
2024/01/11 05:07:41;;;;;;;20.77;12.03;;;0.00;85.90;;;;;;6244800;23;20011;-66
2024/01/11 05:10:07;;;;;;;17.83;9.97;;;0.00;85.40;;;;;;6245140;23;20000;-66
2024/01/11 05:12:33;;;;;;;19.33;10.67;;;0.00;85.50;;;;;;6245189;23;20007;-65
2024/01/11 05:14:59;;;;;;;19.03;10.60;;;0.00;85.60;;;;;;6244814;23;19996;-65
2024/01/11 05:17:26;;;;;;;20.03;10.47;;;-0.10;85.40;;;;;;6245901;23;20012;-65
2024/01/11 05:19:52;;;;;;;21.83;10.70;;;-0.10;85.40;;;;;;6247021;23;20426;-66
2024/01/11 05:22:18;;;;;;;19.90;10.80;;;-0.10;85.40;;;;;;6246858;23;20082;-67
2024/01/11 05:24:44;;;;;;;22.10;11.57;;;-0.10;86.20;;;;;;6247146;23;20024;-65
2024/01/11 05:27:09;;;;;;;25.40;11.00;;;-0.20;86.00;;;;;;6247285;23;20004;-65
2024/01/11 05:29:35;;;;;;;23.33;11.77;;;-0.20;85.50;;;;;;6246838;23;20452;-65
2024/01/11 05:32:01;;;;;;;20.77;11.77;;;-0.20;86.10;;;;;;6246941;23;20075;-65
2024/01/11 05:34:26;;;;;;;25.00;11.73;;;-0.20;86.30;;;;;;6247094;23;20000;-65
2024/01/11 05:36:52;;;;;;;24.70;13.87;;;-0.20;86.50;;;;;;6246625;23;20453;-66
2024/01/11 05:39:18;;;;;;;24.70;13.30;;;-0.30;87.30;;;;;;6246647;23;20054;-65
2024/01/11 05:41:45;;;;;;;26.07;11.43;;;-0.30;87.60;;;;;;6246523;23;20008;-65
2024/01/11 05:44:11;;;;;;;22.27;11.73;;;-0.30;87.20;;;;;;6246489;23;20307;-66
2024/01/11 05:46:36;;;;;;;27.83;12.90;;;-0.40;87.30;;;;;;6246503;23;20019;-65
2024/01/11 05:49:03;;;;;;;22.40;11.03;;;-0.30;88.50;;;;;;6227307;23;20091;-65
2024/01/11 05:51:29;;;;;;;24.80;11.37;;;-0.40;88.30;;;;;;6216186;23;20008;-66
2024/01/11 05:53:55;;;;;;;22.27;10.03;;;-0.40;88.60;;;;;;6215844;23;20008;-65
2024/01/11 05:56:21;;;;;;;18.60;11.63;;;-0.40;88.70;;;;;;6216378;23;20074;-66
2024/01/11 05:58:46;;;;;;;23.90;13.93;;;-0.40;89.50;;;;;;6216127;23;20031;-67
2024/01/11 06:01:12;;;;;;;20.90;10.43;;;-0.40;89.80;;;;;;6215708;23;20091;-66
2024/01/11 06:03:39;;;;;;;21.70;11.20;;;-0.40;89.80;;;;;;6216179;23;19996;-66
2024/01/11 06:06:05;;;;;;;21.03;11.97;;;-0.40;90.10;;;;;;6216087;23;20008;-65
2024/01/11 06:08:31;;;;;;;18.43;10.53;;;-0.40;90.10;;;;;;6189373;23;20028;-66
2024/01/11 06:10:58;;;;;;;16.90;10.53;;;-0.30;90.00;;;;;;6215721;23;20008;-66
2024/01/11 06:13:24;;;;;;;17.80;9.33;;;-0.30;90.00;;;;;;6216355;23;20027;-65
2024/01/11 06:15:50;;;;;;;19.50;10.03;;;-0.30;89.60;;;;;;6216751;23;20001;-66
2024/01/11 06:18:16;;;;;;;17.53;9.47;;;-0.30;90.00;;;;;;6216490;23;20032;-65
2024/01/11 06:20:42;;;;;;;21.53;10.70;;;-0.40;90.00;;;;;;6215997;23;20036;-65
2024/01/11 06:23:07;;;;;;;16.70;9.80;;;-0.40;89.50;;;;;;6215823;23;20078;-65
2024/01/11 06:25:33;;;;;;;20.40;10.50;;;-0.40;89.50;;;;;;6216253;23;20004;-65
2024/01/11 06:27:59;;;;;;;24.80;12.73;;;-0.40;90.30;;;;;;6215845;23;20005;-65
2024/01/11 06:30:25;;;;;;;30.53;13.90;;;-0.40;90.20;;;;;;6215736;23;20039;-65
2024/01/11 06:32:51;;;;;;;31.37;12.77;;;-0.40;90.10;;;;;;6215707;23;19997;-66
2024/01/11 06:35:17;;;;;;;33.30;13.03;;;-0.50;90.10;;;;;;6214976;23;20008;-65
2024/01/11 06:37:43;;;;;;;31.30;13.00;;;-0.40;90.10;;;;;;6215887;23;20285;-66
2024/01/11 06:40:09;;;;;;;31.60;13.20;;;-0.50;89.60;;;;;;6215357;23;20041;-65
2024/01/11 06:42:35;;;;;;;28.77;13.37;;;-0.40;89.30;;;;;;6215781;23;20338;-66
2024/01/11 06:45:01;;;;;;;26.80;12.13;;;-0.40;89.10;;;;;;6216048;23;20043;-65
2024/01/11 06:47:26;;;;;;;35.93;12.90;;;-0.50;89.20;;;;;;6216214;23;20043;-65
2024/01/11 06:49:53;;;;;;;37.47;14.80;;;-0.50;89.50;;;;;;6245046;23;20008;-66
2024/01/11 06:52:19;;;;;;;27.37;14.90;;;-0.60;89.80;;;;;;6246164;23;20000;-65
2024/01/11 06:54:45;;;;;;;33.10;15.20;;;-0.60;90.20;;;;;;6245722;23;20008;-65
2024/01/11 06:57:11;;;;;;;25.87;14.47;;;-0.60;90.50;;;;;;6245697;23;20004;-65
2024/01/11 06:59:37;;;;;;;27.43;16.50;;;-0.60;90.50;;;;;;6245626;23;20042;-66
2024/01/11 07:02:03;;;;;;;29.50;16.13;;;-0.60;91.10;;;;;;6245678;23;20015;-65
2024/01/11 07:04:29;;;;;;;28.00;15.27;;;-0.60;91.40;;;;;;6245278;23;20004;-66
2024/01/11 07:06:55;;;;;;;29.50;14.13;;;-0.60;91.30;;;;;;6245824;23;20055;-65
2024/01/11 07:09:20;;;;;;;30.77;15.53;;;-0.60;91.20;;;;;;6245756;23;20019;-66
2024/01/11 07:11:46;;;;;;;27.07;12.97;;;-0.60;91.40;;;;;;6246073;23;20030;-65
2024/01/11 07:14:12;;;;;;;32.27;14.67;;;-0.50;91.50;;;;;;6245947;23;19996;-64
2024/01/11 07:16:38;;;;;;;36.87;15.73;;;-0.50;91.70;;;;;;6245703;23;20001;-65
2024/01/11 07:19:04;;;;;;;32.23;14.77;;;-0.50;92.00;;;;;;6245734;23;19996;-65
2024/01/11 07:21:31;;;;;;;37.83;16.27;;;-0.50;91.80;;;;;;6245680;23;20008;-65
2024/01/11 07:23:59;;;;;;;28.00;14.87;;;-0.40;92.00;;;;;;6245945;23;20419;-65
2024/01/11 07:26:26;;;;;;;26.87;15.43;;;-0.40;91.90;;;;;;6245840;23;20414;-65
2024/01/11 07:28:54;;;;;;;33.23;15.93;;;-0.30;91.70;;;;;;6245778;23;19992;-66
2024/01/11 07:31:20;;;;;;;31.67;16.23;;;-0.30;91.40;;;;;;6245431;23;20093;-66
2024/01/11 07:33:46;;;;;;;31.07;15.53;;;-0.30;91.40;;;;;;6245850;23;20004;-66
2024/01/11 07:36:12;;;;;;;28.30;15.23;;;-0.20;91.40;;;;;;6245595;23;20077;-65
2024/01/11 07:38:38;;;;;;;24.23;14.07;;;-0.20;91.60;;;;;;6245770;23;19996;-66
2024/01/11 07:41:04;;;;;;;29.30;14.03;;;-0.20;91.80;;;;;;6218345;23;20070;-65
2024/01/11 07:43:31;;;;;;;30.63;13.93;;;-0.10;92.40;;;;;;6245767;23;20008;-65
2024/01/11 07:45:56;;;;;;;41.77;16.30;;;-0.10;92.10;;;;;;6245164;23;20004;-65
2024/01/11 07:48:23;;;;;;;28.00;13.73;;;0.00;92.00;;;;;;6245632;23;20087;-64
2024/01/11 07:50:49;;;;;;;31.27;12.97;;;0.00;92.50;;;;;;6245894;23;20004;-66
2024/01/11 07:53:15;;;;;;;28.13;13.37;;;0.10;93.10;;;;;;6245702;23;20063;-65
2024/01/11 07:55:41;;;;;;;30.30;11.87;;;0.10;93.40;;;;;;6243225;23;20008;-66
2024/01/11 07:58:07;;;;;;;39.37;14.23;;;0.20;93.50;;;;;;6242182;23;20000;-65
2024/01/11 08:00:33;;;;;;;30.83;13.97;;;0.30;93.70;;;;;;6242533;23;20016;-65
2024/01/11 08:03:00;;;;;;;36.03;15.47;;;0.40;93.80;;;;;;6244567;23;20004;-65
2024/01/11 08:05:26;;;;;;;48.20;16.37;;;0.50;93.60;;;;;;6245467;23;20004;-66
2024/01/11 08:07:52;;;;;;;44.10;16.90;;;0.50;93.50;;;;;;6245676;23;20000;-66
2024/01/11 08:10:17;;;;;;;39.60;19.10;;;0.60;93.10;;;;;;6245392;23;20007;-65
2024/01/11 08:12:43;;;;;;;41.63;18.93;;;0.70;92.90;;;;;;6245547;23;20004;-66
2024/01/11 08:15:12;;;;;;;37.37;19.00;;;0.80;92.60;;;;;;6245244;23;20003;-66
2024/01/11 08:17:47;;;;;;;39.57;18.13;;;0.90;92.30;;;;;;6243619;23;20011;-66
2024/01/11 08:20:13;;;;;;;42.93;19.83;;;1.00;92.30;;;;;;6242569;23;20004;-66
2024/01/11 08:22:41;;;;;;;37.20;19.80;;;1.00;92.10;;;;;;6242704;23;20308;-66
2024/01/11 08:25:07;;;;;;;38.00;18.90;;;1.10;92.40;;;;;;6243818;23;20067;-65
2024/01/11 08:27:33;;;;;;;39.50;18.17;;;1.20;92.40;;;;;;6244908;23;20418;-65
2024/01/11 08:30:02;;;;;;;33.23;18.43;;;1.20;92.10;;;;;;6245281;23;20034;-65
2024/01/11 08:32:28;;;;;;;37.37;19.80;;;1.30;92.10;;;;;;6245043;23;20011;-65
2024/01/11 08:34:54;;;;;;;34.10;18.80;;;1.40;92.00;;;;;;6245018;23;20088;-66
2024/01/11 08:37:20;;;;;;;42.40;19.00;;;1.40;92.00;;;;;;6242853;23;20442;-66
2024/01/11 08:39:46;;;;;;;43.10;19.80;;;1.50;92.00;;;;;;6244922;23;20000;-67
2024/01/11 08:42:12;;;;;;;36.23;18.83;;;1.50;91.70;;;;;;6245003;23;20012;-67
2024/01/11 08:44:45;;;;;;;37.60;19.67;;;1.60;91.50;;;;;;6245174;23;20020;-66
2024/01/11 08:47:10;;;;;;;;;;;1.60;91.20;;;;;;6245470;23;20012;-69
2024/01/11 08:49:39;;;;;;;41.10;20.73;;;1.70;91.00;;;;;;6244644;23;19939;-65
2024/01/11 08:52:05;;;;;;;46.63;24.17;;;1.80;91.10;;;;;;6217749;23;20004;-65
2024/01/11 08:54:32;;;;;;;42.13;20.57;;;1.80;91.00;;;;;;6244400;23;20050;-66
2024/01/11 08:56:58;;;;;;;40.93;21.03;;;1.90;90.80;;;;;;6244683;23;20004;-67
2024/01/11 08:59:25;;;;;;;37.23;19.17;;;1.90;91.10;;;;;;6244941;23;20000;-70
2024/01/11 09:01:52;;;;;;;40.47;19.23;;;1.90;90.70;;;;;;6244762;23;20095;-66
2024/01/11 09:04:18;;;;;;;34.63;16.23;;;1.90;90.50;;;;;;6244891;23;19996;-66
2024/01/11 09:06:44;;;;;;;33.67;17.20;;;2.00;90.20;;;;;;6244396;23;20000;-66
2024/01/11 09:09:13;;;;;;;30.47;16.43;;;2.00;90.70;;;;;;6244718;23;20003;-70
2024/01/11 09:11:40;;;;;;;31.47;16.60;;;2.00;90.90;;;;;;6245098;23;20437;-66
2024/01/11 09:14:11;;;;;;;31.57;16.07;;;2.10;90.30;;;;;;6244772;23;20027;-66
2024/01/11 09:16:37;;;;;;;25.57;14.97;;;2.10;90.40;;;;;;6244664;23;20026;-66
2024/01/11 09:19:02;;;;;;;33.27;15.77;;;2.20;90.40;;;;;;6242843;23;20004;-66
2024/01/11 09:21:28;;;;;;;36.73;15.77;;;2.20;90.40;;;;;;6241574;23;20044;-66
2024/01/11 09:23:55;;;;;;;29.33;15.87;;;2.20;90.30;;;;;;6242145;23;20027;-68
2024/01/11 09:26:22;;;;;;;58.97;18.30;;;2.30;90.00;;;;;;6244965;23;20000;-66
2024/01/11 09:28:48;;;;;;;35.07;16.17;;;;;;;;;;6244974;23;20000;-67
2024/01/11 09:31:14;;;;;;;30.30;16.13;;;2.40;88.80;;;;;;6244918;23;20050;-70
2024/01/11 09:33:40;;;;;;;32.50;14.67;;;2.40;88.60;;;;;;6244780;23;20008;-66
2024/01/11 09:36:08;;;;;;;30.70;15.07;;;2.60;88.10;;;;;;6217409;23;20035;-66
2024/01/11 09:38:34;;;;;;;29.40;15.73;;;;;;;;;;6245150;23;20012;-66
2024/01/11 09:41:09;;;;;;;35.13;16.57;;;;;;;;;;6244876;23;20086;-68
2024/01/11 09:43:35;;;;;;;28.77;15.37;;;2.80;86.00;;;;;;6244773;23;20086;-66
2024/01/11 09:46:05;;;;;;;30.53;14.90;;;2.80;84.50;;;;;;6244887;23;20020;-70
2024/01/11 09:48:35;;;;;;;29.47;15.13;;;2.90;84.30;;;;;;6244284;23;20439;-66
2024/01/11 09:51:09;;;;;;;29.40;15.30;;;3.00;83.90;;;;;;6244264;23;20023;-66
2024/01/11 09:53:36;;;;;;;24.70;13.97;;;;;;;;;;6244849;23;20004;-67
2024/01/11 09:56:09;;;;;;;23.73;12.47;;;3.10;83.10;;;;;;6244629;23;20003;-68
2024/01/11 09:58:38;;;;;;;;;;;3.10;83.00;;;;;;6218306;23;20349;-66
2024/01/11 10:01:09;;;;;;;20.07;11.87;;;3.20;82.80;;;;;;6244626;23;20367;-66
2024/01/11 10:03:35;;;;;;;21.77;12.33;;;3.30;82.00;;;;;;6243039;22;20004;-65
2024/01/11 10:06:02;;;;;;;27.30;11.80;;;3.30;80.60;;;;;;6245589;23;20003;-66
2024/01/11 10:08:29;;;;;;;21.50;12.00;;;3.40;80.40;;;;;;6246293;23;20004;-66
2024/01/11 10:10:56;;;;;;;19.73;11.40;;;3.40;80.50;;;;;;6246642;23;20015;-65
2024/01/11 10:13:28;;;;;;;21.40;11.83;;;3.50;79.80;;;;;;6246577;23;20028;-66
2024/01/11 10:16:06;;;;;;;18.77;11.17;;;3.50;79.20;;;;;;6245954;23;20000;-65
2024/01/11 10:18:32;;;;;;;24.67;10.30;;;3.60;79.20;;;;;;6246747;23;20032;-67
2024/01/11 10:20:57;;;;;;;23.70;11.77;;;3.70;78.10;;;;;;6246353;23;20031;-66
2024/01/11 10:23:23;;;;;;;16.90;9.57;;;3.80;77.50;;;;;;6246259;23;20004;-65
2024/01/11 10:25:49;;;;;;;21.57;11.00;;;3.90;76.60;;;;;;6246386;23;20004;-66
2024/01/11 10:28:16;;;;;;;20.60;10.00;;;3.90;75.90;;;;;;6242965;23;20008;-66
2024/01/11 10:30:45;;;;;;;16.83;10.43;;;4.00;75.70;;;;;;6243435;23;20008;-65
2024/01/11 10:33:11;;;;;;;19.50;9.30;;;4.10;75.00;;;;;;6242955;23;20028;-66
2024/01/11 10:35:36;;;;;;;19.40;10.03;;;4.10;73.70;;;;;;6239400;23;20019;-65
2024/01/11 10:38:09;;;;;;;18.23;8.90;;;4.20;72.60;;;;;;6246311;23;20000;-65
2024/01/11 10:40:35;;;;;;;26.33;16.67;;;;;;;;;;6244989;23;20430;-65
2024/01/11 10:43:05;;;;;;;21.23;14.67;;;4.30;70.80;;;;;;6245771;23;20004;-65
2024/01/11 10:45:38;;;;;;;21.27;12.53;;;4.40;69.90;;;;;;6246183;23;20004;-66
2024/01/11 10:48:13;;;;;;;17.90;9.70;;;4.50;68.50;;;;;;6244677;23;20308;-65
2024/01/11 10:50:43;;;;;;;17.10;9.97;;;4.50;68.40;;;;;;6219043;23;20004;-65
2024/01/11 10:53:13;;;;;;;17.37;10.53;;;;;;;;;;6246081;23;19996;-65
2024/01/11 10:55:41;;;;;;;17.17;9.83;;;4.70;66.90;;;;;;6244731;23;20008;-66
2024/01/11 10:58:07;;;;;;;14.60;8.67;;;4.80;66.50;;;;;;6246375;23;20007;-67
2024/01/11 11:00:35;;;;;;;17.87;8.80;;;4.90;66.50;;;;;;6244137;23;20011;-66
2024/01/11 11:03:02;;;;;;;15.63;7.80;;;5.00;66.00;;;;;;6243127;23;20374;-66
2024/01/11 11:05:30;;;;;;;12.87;8.13;;;;;;;;;;6242121;23;20058;-66
2024/01/11 11:07:56;;;;;;;13.90;8.10;;;5.10;64.80;;;;;;6243084;23;20035;-66
2024/01/11 11:10:22;;;;;;;11.87;7.13;;;5.20;63.80;;;;;;6244406;23;20092;-66
2024/01/11 11:12:49;;;;;;;14.30;7.80;;;5.30;62.90;;;;;;6246355;23;20005;-66
2024/01/11 11:15:15;;;;;;;20.97;8.70;;;;;;;;;;6245978;23;20476;-66
2024/01/11 11:17:43;;;;;;;23.80;9.47;;;;;;;;;;6246312;23;20449;-66
2024/01/11 11:20:11;;;;;;;15.40;7.63;;;;;;;;;;6245975;23;20415;-66
2024/01/11 11:22:38;;;;;;;17.87;7.03;;;;;;;;;;6245954;23;20027;-66
2024/01/11 11:25:09;;;;;;;13.60;7.20;;;;;;;;;;6246070;23;20418;-66
2024/01/11 11:27:36;;;;;;;20.10;8.83;;;;;;;;;;6245650;23;20073;-66
2024/01/11 11:30:04;;;;;;;14.97;8.20;;;5.40;63.40;;;;;;6245926;23;20004;-66
2024/01/11 11:32:43;;;;;;;15.30;8.27;;;5.80;61.20;;;;;;6246145;23;19997;-66
2024/01/11 11:35:09;;;;;;;15.93;7.87;;;5.80;60.30;;;;;;6246760;23;20004;-66
2024/01/11 11:37:39;;;;;;;15.07;8.40;;;5.90;60.60;;;;;;6246076;23;20011;-66
2024/01/11 11:40:10;;;;;;;16.37;8.63;;;6.00;59.90;;;;;;6245776;23;20000;-66
2024/01/11 11:42:36;;;;;;;17.20;8.47;;;6.00;59.90;;;;;;6246333;23;20022;-66
2024/01/11 11:45:03;;;;;;;14.80;7.97;;;6.10;60.90;;;;;;6246195;23;20078;-66
2024/01/11 11:47:35;;;;;;;12.07;7.87;;;6.10;60.90;;;;;;6245843;23;20007;-66
2024/01/11 11:50:12;;;;;;;13.43;7.20;;;6.20;60.30;;;;;;6246013;23;20012;-66
2024/01/11 11:52:38;;;;;;;14.33;7.87;;;6.30;60.30;;;;;;6245065;23;20427;-66
2024/01/11 11:55:07;;;;;;;15.77;7.60;;;6.30;59.70;;;;;;6246034;23;20059;-66
2024/01/11 11:57:34;;;;;;;10.97;5.90;;;;;;;;;;6245553;23;20000;-66
2024/01/11 12:00:02;;;;;;;11.37;6.20;;;;;;;;;;6242488;23;20426;-65
2024/01/11 12:02:28;;;;;;;12.57;5.83;;;;;;;;;;6242345;23;20476;-65
2024/01/11 12:04:55;;;;;;;10.30;5.30;;;;;;;;;;6243411;23;20024;-65
2024/01/11 12:07:22;;;;;;;16.13;6.23;;;6.30;59.90;;;;;;6245717;23;20375;-65
2024/01/11 12:09:48;;;;;;;18.50;7.87;;;6.60;57.20;;;;;;6232782;23;20058;-65
2024/01/11 12:12:15;;;;;;;44.17;24.77;;;6.70;57.10;;;;;;6242140;23;20000;-66
2024/01/11 12:14:42;;;;;;;13.30;8.90;;;6.70;57.30;;;;;;6241564;23;19996;-66
2024/01/11 12:17:08;;;;;;;20.27;13.70;;;6.80;57.20;;;;;;6243136;23;20138;-65
2024/01/11 12:19:34;;;;;;;11.00;7.13;;;6.80;56.70;;;;;;6241589;23;20431;-65
2024/01/11 12:22:00;;;;;;;10.03;5.53;;;6.80;56.70;;;;;;6241595;23;20015;-64
2024/01/11 12:24:26;;;;;;;9.77;5.70;;;6.80;56.10;;;;;;6243951;23;20000;-65
2024/01/11 12:26:53;;;;;;;11.57;5.97;;;6.90;56.30;;;;;;6244441;23;20612;-66
2024/01/11 12:29:19;;;;;;;11.97;6.10;;;6.90;56.30;;;;;;6244268;23;20008;-65
2024/01/11 12:31:45;;;;;;;10.83;5.80;;;6.90;56.50;;;;;;6244211;23;20434;-66
2024/01/11 12:34:15;;;;;;;10.20;5.50;;;7.00;56.60;;;;;;6244464;23;20000;-65
2024/01/11 12:36:42;;;;;;;11.43;5.97;;;;;;;;;;6244481;23;20011;-65
2024/01/11 12:39:09;;;;;;;11.50;5.57;;;7.00;56.30;;;;;;6244721;23;20028;-65
2024/01/11 12:41:36;;;;;;;10.10;5.70;;;7.10;55.80;;;;;;6244217;23;20095;-65